KFTK

Godman AAF Airport

Fort Knox, Kentucky, USA
TAF KFTK 260100Z 2601/2707 34006KT 9999 BKN100 QNH2987INS TX22/2621Z TN09/2612Z
Issued Valid From Valid To
Apr-26 @ 01:00 UTC
(5 hours ago)
Apr-26 @ 01:00 UTC
(5 hours ago)
Apr-27 @ 07:00 UTC
(-1 days ago)
Apr-26 @ 01:00 to Apr-27 @ 07:00
TAF KFTK 260100Z 2601/2707 34006KT 9999 BKN100 QNH2987INS TX22/2621Z TN09/2612Z
Wind Visibility Clouds Readings
340° at 6 knots Greater than 6 miles
  • Broken at 10,000' AGL
Altimeter 29.88" Hg
Pressure 1012 hPa
TAF KFTK 260100Z 2601/2707 34006KT 9999 BKN100 QNH2987INS TX22/2621Z TN09/2612Z
Issued Apr-26 @ 01:00 UTC
(5 hours ago)
Valid From Apr-26 @ 01:00 UTC
(5 hours ago)
Valid To Apr-27 @ 07:00 UTC
(-1 days ago)
Apr-26 @ 01:00 - Apr-27 @ 07:00
Wind Visibility
340° at 6 knots Greater than 6 miles
Clouds
  • Broken at 10,000' AGL